Time;durP1;ratioP1;P1;durP2;ratioP2;P2;SDS_P1;SDS_P2;PMS_P1;PMS_P2;Temp;Humidity;BMP_temperature;BMP_pressure;BME280_temperature;BME280_humidity;BME280_pressure;Samples;Min_cycle;Max_cycle;Signal;HPM_P1;HPM_P2
2022/12/14 00:01:51;;;;;;;34.60;19.10;;;;;;;-3.39;78.60;99498.00;210230;1294;139971;-62
2022/12/14 00:06:56;;;;;;;40.40;19.50;;;;;;;-3.49;78.62;99501.43;210200;1295;140685;-66
2022/12/14 00:12:00;;;;;;;43.80;20.40;;;;;;;-3.49;78.51;99505.35;210321;1291;141065;-66
2022/12/14 00:17:04;;;;;;;40.30;22.50;;;;;;;-3.41;78.43;99504.95;210434;1296;141078;-67
2022/12/14 00:22:07;;;;;;;41.40;20.50;;;;;;;-3.43;78.36;99504.95;210255;1298;140587;-67
2022/12/14 00:27:11;;;;;;;37.60;19.30;;;;;;;-3.49;78.20;99506.97;210419;1295;140891;-64
2022/12/14 00:32:15;;;;;;;30.60;16.60;;;;;;;-3.65;77.76;99506.20;210348;1280;142418;-62
2022/12/14 00:37:19;;;;;;;30.20;16.90;;;;;;;-3.93;77.35;99505.46;210316;1298;140035;-65
2022/12/14 00:42:23;;;;;;;33.00;19.00;;;;;;;-4.26;76.65;99497.57;210380;1288;139966;-63
2022/12/14 00:47:27;;;;;;;28.40;12.80;;;;;;;-4.58;76.07;99497.65;210278;1294;225250;-62
2022/12/14 00:52:31;;;;;;;38.90;22.50;;;;;;;-5.00;76.16;99501.95;210198;1294;140226;-63
2022/12/14 00:57:34;;;;;;;43.00;21.30;;;;;;;-5.36;76.70;99503.33;209473;1300;141021;-64
2022/12/14 01:02:38;;;;;;;35.90;19.70;;;;;;;-5.60;77.29;99498.50;209266;1295;139619;-66
2022/12/14 01:07:42;;;;;;;40.30;20.30;;;;;;;-5.73;77.37;99495.80;210252;1295;140384;-66
2022/12/14 01:12:51;;;;;;;27.80;14.60;;;;;;;-5.72;77.88;99500.57;210427;1301;140900;-63
2022/12/14 01:17:56;;;;;;;45.20;22.00;;;;;;;-5.76;77.85;99490.38;208004;1301;140543;-65
2022/12/14 01:23:00;;;;;;;36.10;18.90;;;;;;;-5.86;78.17;99485.86;209617;1300;140596;-62
2022/12/14 01:28:06;;;;;;;59.40;27.30;;;;;;;-5.86;78.62;99488.45;210378;1303;142072;-63
2022/12/14 01:33:10;;;;;;;46.30;22.70;;;;;;;-5.77;78.74;99491.10;210349;1295;141544;-64
2022/12/14 01:38:15;;;;;;;46.90;23.50;;;;;;;-5.76;78.43;99483.98;210156;1295;142648;-64
2022/12/14 01:43:20;;;;;;;52.70;22.80;;;;;;;-5.84;78.69;99482.27;209863;1302;528982;-64
2022/12/14 01:48:25;;;;;;;68.00;29.80;;;;;;;-5.85;78.91;99476.13;210335;1295;141733;-63
2022/12/14 01:53:28;;;;;;;67.40;30.60;;;;;;;-5.79;78.88;99476.27;210425;1299;141986;-64
2022/12/14 01:58:34;;;;;;;36.00;16.10;;;;;;;-5.83;78.94;99474.70;210386;1295;140088;-64
2022/12/14 02:03:46;;;;;;;31.50;16.80;;;;;;;-5.92;78.81;99466.37;210398;1301;139873;-63
2022/12/14 02:08:52;;;;;;;36.50;18.40;;;;;;;-6.01;79.01;99464.91;210322;1294;140802;-63
2022/12/14 02:13:56;;;;;;;44.40;23.90;;;;;;;-6.09;79.24;99463.59;210334;1294;141049;-63
2022/12/14 02:19:00;;;;;;;52.20;24.10;;;;;;;-6.13;79.28;99461.12;210259;1294;141444;-64
2022/12/14 02:24:17;;;;;;;41.20;20.00;;;;;;;-6.03;79.31;99463.92;210321;1294;141175;-64
2022/12/14 02:29:34;;;;;;;48.40;25.80;;;;;;;-5.96;79.36;99462.45;210493;1285;141107;-63
2022/12/14 02:35:06;;;;;;;41.20;21.30;;;;;;;-5.93;79.25;99458.02;209353;1299;139800;-63
2022/12/14 02:40:28;;;;;;;40.90;21.80;;;;;;;-5.97;79.02;99461.45;210294;1301;140335;-66
2022/12/14 02:45:40;;;;;;;45.10;22.00;;;;;;;-5.90;79.35;99457.02;209756;1299;139734;-62
2022/12/14 02:50:55;;;;;;;41.10;20.20;;;;;;;-5.85;79.16;99455.50;210421;1294;139656;-63
2022/12/14 02:56:07;;;;;;;43.50;22.90;;;;;;;-5.93;78.83;99460.96;210472;1293;139878;-64
2022/12/14 03:01:18;;;;;;;38.00;17.80;;;;;;;-5.98;78.99;99460.52;209939;1295;141541;-67
2022/12/14 03:06:25;;;;;;;50.40;23.10;;;;;;;-5.97;79.00;99466.48;209126;1295;140317;-64
2022/12/14 03:11:45;;;;;;;40.30;20.10;;;;;;;-5.93;78.93;99472.35;209627;1294;139957;-65
2022/12/14 03:16:52;;;;;;;40.30;17.10;;;;;;;-5.94;78.97;99468.82;210494;1295;140645;-65
2022/12/14 03:22:22;;;;;;;36.80;19.70;;;;;;;-6.05;78.36;99471.58;210447;1286;141192;-64
2022/12/14 03:27:35;;;;;;;43.00;21.50;;;;;;;-6.17;78.18;99466.02;210028;1299;140807;-64
2022/12/14 03:32:53;;;;;;;39.60;21.10;;;;;;;-6.18;78.49;99466.83;210350;1293;140451;-63
2022/12/14 03:38:05;;;;;;;37.90;21.40;;;;;;;-6.23;78.06;99462.96;210269;1293;139932;-64
2022/12/14 03:43:16;;;;;;;26.40;15.20;;;;;;;-6.44;77.71;99463.69;210354;1301;139570;-64
2022/12/14 03:48:33;;;;;;;27.40;15.20;;;;;;;-6.73;77.05;99459.84;210480;1296;139619;-64
2022/12/14 03:53:55;;;;;;;34.70;16.90;;;;;;;-7.02;76.57;99456.78;210452;1294;140516;-64
2022/12/14 03:59:06;;;;;;;30.90;16.70;;;;;;;-7.33;76.48;99458.70;210426;1292;142219;-63
2022/12/14 04:04:35;;;;;;;34.00;14.80;;;;;;;-7.65;76.47;99452.48;210507;1295;141108;-63
2022/12/14 04:09:49;;;;;;;33.90;17.80;;;;;;;-8.00;76.70;99447.90;210510;1293;140676;-64
2022/12/14 04:21:00;;;;;;;27.40;13.40;;;;;;;-8.49;76.41;99438.45;209975;1295;140379;-64
2022/12/14 04:26:08;;;;;;;36.40;15.40;;;;;;;-8.74;76.38;99432.98;210460;1291;140341;-64
2022/12/14 04:31:18;;;;;;;35.60;18.40;;;;;;;-8.92;76.37;99432.66;210344;1293;141805;-62
2022/12/14 04:36:31;;;;;;;33.10;19.80;;;;;;;-9.10;76.74;99427.23;210194;1298;141806;-62
2022/12/14 04:41:43;;;;;;;35.40;18.50;;;;;;;-9.17;76.69;99429.61;210535;1293;149613;-63
2022/12/14 04:46:49;;;;;;;33.30;18.40;;;;;;;-9.31;76.51;99427.08;210378;1298;142232;-62
2022/12/14 04:52:15;;;;;;;45.60;20.90;;;;;;;-9.42;76.60;99426.59;209875;1295;141396;-64
2022/12/14 04:57:22;;;;;;;32.20;15.90;;;;;;;-9.46;76.87;99425.70;210480;1301;244358;-63
2022/12/14 05:02:46;;;;;;;27.60;16.40;;;;;;;-9.56;76.45;99423.84;210169;1277;141065;-62
2022/12/14 05:08:11;;;;;;;29.30;17.10;;;;;;;-9.64;76.75;99416.85;210456;1299;141933;-62
2022/12/14 05:13:28;;;;;;;37.70;17.90;;;;;;;-9.64;76.99;99413.28;210410;1301;141136;-62
2022/12/14 05:18:35;;;;;;;34.50;18.50;;;;;;;-9.62;77.14;99415.87;210103;1295;141773;-63
2022/12/14 05:23:41;;;;;;;47.00;21.80;;;;;;;-9.59;77.00;99410.81;210249;1295;140428;-62
2022/12/14 05:28:45;;;;;;;46.50;20.60;;;;;;;-9.56;76.93;99406.66;210322;1294;142037;-62
2022/12/14 05:33:53;;;;;;;52.90;20.10;;;;;;;-9.60;76.90;99405.91;210505;1282;140539;-62
2022/12/14 05:38:58;;;;;;;43.80;20.50;;;;;;;-9.65;76.68;99398.54;210457;1294;142029;-64
2022/12/14 05:44:02;;;;;;;46.10;22.60;;;;;;;-9.62;77.04;99396.62;210214;1300;140762;-63
2022/12/14 05:49:08;;;;;;;38.00;22.70;;;;;;;-9.61;77.03;99389.66;210233;1285;141200;-65
2022/12/14 05:54:13;;;;;;;38.30;18.50;;;;;;;-9.56;76.91;99383.21;210229;1287;142751;-64
2022/12/14 05:59:17;;;;;;;43.40;20.80;;;;;;;-9.54;76.70;99392.88;210436;1292;140199;-65
2022/12/14 06:04:23;;;;;;;45.50;20.20;;;;;;;-9.60;77.05;99398.69;210396;1295;140072;-64
2022/12/14 06:09:27;;;;;;;29.50;16.40;;;;;;;-9.64;77.16;99401.77;210412;1295;140019;-65
2022/12/14 06:14:32;;;;;;;45.50;19.40;;;;;;;-9.75;77.19;99403.60;210459;1294;140402;-62
2022/12/14 06:19:36;;;;;;;36.40;16.80;;;;;;;-9.81;76.89;99404.41;210400;1296;140422;-61
2022/12/14 06:24:40;;;;;;;28.50;13.00;;;;;;;-9.91;76.85;99405.95;210240;1295;141978;-64
2022/12/14 06:29:46;;;;;;;38.60;21.30;;;;;;;-9.92;77.20;99402.66;210277;1292;141736;-63
2022/12/14 06:34:51;;;;;;;55.70;22.30;;;;;;;-9.85;77.36;99403.83;210244;1295;140204;-64
2022/12/14 06:39:55;;;;;;;44.80;23.00;;;;;;;-9.73;77.33;99402.23;208236;1295;140572;-64
2022/12/14 06:44:59;;;;;;;37.90;21.00;;;;;;;-9.62;77.53;99400.77;210616;1295;140219;-65
2022/12/14 06:50:05;;;;;;;35.90;19.90;;;;;;;-9.60;77.10;99398.55;210516;1295;140132;-63
2022/12/14 06:55:10;;;;;;;38.70;15.30;;;;;;;-9.67;76.99;99391.29;210342;1295;140773;-64
2022/12/14 07:00:15;;;;;;;21.50;13.80;;;;;;;-9.70;76.99;99390.30;210316;1295;140198;-64
2022/12/14 07:05:20;;;;;;;34.40;16.80;;;;;;;-9.75;76.69;99385.68;210330;1294;142026;-62
2022/12/14 07:10:24;;;;;;;39.00;21.50;;;;;;;-9.77;76.88;99383.14;210265;1295;141735;-64
2022/12/14 07:15:28;;;;;;;52.80;27.20;;;;;;;-9.76;76.93;99379.56;209171;1293;142100;-62
2022/12/14 07:20:33;;;;;;;56.30;26.80;;;;;;;-9.62;77.13;99374.73;210430;1295;140674;-64
2022/12/14 07:25:37;;;;;;;59.60;28.50;;;;;;;-9.39;77.61;99375.02;210467;1294;141117;-64
2022/12/14 07:30:41;;;;;;;46.90;21.40;;;;;;;-9.23;77.69;99372.77;210365;1295;141196;-63
2022/12/14 07:35:44;;;;;;;40.60;20.60;;;;;;;-9.14;77.63;99379.52;210300;1295;140840;-63
2022/12/14 07:40:48;;;;;;;47.70;24.50;;;;;;;-9.25;77.39;99371.59;210305;1295;140783;-64
2022/12/14 07:46:00;;;;;;;77.80;32.80;;;;;;;-9.30;77.64;99368.70;208864;1285;140444;-63
2022/12/14 07:51:10;;;;;;;81.50;35.50;;;;;;;-9.13;77.70;99370.29;210532;1293;140702;-62
2022/12/14 07:56:16;;;;;;;60.40;28.10;;;;;;;-8.95;77.35;99370.61;210316;1295;140436;-62
2022/12/14 08:01:26;;;;;;;83.80;31.30;;;;;;;-8.71;77.45;99366.98;210236;1285;142593;-62
2022/12/14 08:06:33;;;;;;;57.10;28.20;;;;;;;-8.41;77.81;99363.65;210508;1295;140298;-64
2022/12/14 08:11:39;;;;;;;60.80;32.00;;;;;;;-8.11;78.07;99359.16;210421;1295;142151;-64
2022/12/14 08:16:45;;;;;;;60.50;30.90;;;;;;;-7.89;78.09;99359.36;210372;1295;140412;-64
2022/12/14 08:21:50;;;;;;;53.50;27.40;;;;;;;-7.76;78.12;99357.48;210437;1288;140607;-62
2022/12/14 08:26:57;;;;;;;21.80;11.60;;;;;;;-7.71;77.90;99359.15;210381;1295;140958;-62
2022/12/14 08:32:03;;;;;;;52.80;25.50;;;;;;;-7.62;77.98;99354.39;210503;1287;141130;-62
2022/12/14 08:37:09;;;;;;;55.50;26.40;;;;;;;-7.50;77.93;99351.61;210372;1294;140762;-62
2022/12/14 08:42:14;;;;;;;29.80;14.60;;;;;;;-7.36;77.84;99345.80;209118;1301;141020;-63
2022/12/14 08:47:19;;;;;;;41.00;20.70;;;;;;;-7.29;77.72;99345.29;210260;1293;141909;-62
2022/12/14 08:52:24;;;;;;;52.10;24.90;;;;;;;-7.18;77.87;99332.27;209970;1295;140500;-63
2022/12/14 08:57:28;;;;;;;31.40;17.00;;;;;;;-6.95;78.08;99333.73;210289;1288;142431;-62
2022/12/14 09:02:33;;;;;;;32.20;18.70;;;;;;;-6.80;77.88;99329.20;209688;1285;141041;-60
2022/12/14 09:07:39;;;;;;;54.10;27.40;;;;;;;-6.75;77.79;99320.98;210184;1285;140235;-62
2022/12/14 09:12:43;;;;;;;53.40;27.70;;;;;;;-6.68;77.52;99319.27;209652;1286;140793;-63
2022/12/14 09:17:49;;;;;;;28.50;16.30;;;;;;;-6.64;77.41;99318.54;210353;1294;141844;-60
2022/12/14 09:22:54;;;;;;;52.00;25.00;;;;;;;-6.60;77.35;99308.02;210325;1301;141042;-64
2022/12/14 09:28:00;;;;;;;39.10;19.70;;;;;;;-6.55;77.31;99301.69;210189;1295;140336;-62
2022/12/14 09:33:04;;;;;;;46.60;24.80;;;;;;;-6.49;77.41;99299.75;210432;1288;141681;-62
2022/12/14 09:38:08;;;;;;;51.80;23.20;;;;;;;-6.44;77.23;99295.36;210264;1294;140598;-59
2022/12/14 09:43:45;;;;;;;53.20;28.40;;;;;;;-6.39;77.29;99285.78;210262;1295;141415;-59
2022/12/14 09:48:53;;;;;;;54.40;26.00;;;;;;;-6.30;77.15;99277.67;210245;1293;140554;-60
2022/12/14 09:54:05;;;;;;;49.30;24.20;;;;;;;-6.29;76.99;99271.66;210232;1295;140324;-62
2022/12/14 09:59:15;;;;;;;58.10;25.50;;;;;;;-6.19;77.14;99264.23;210264;1298;140310;-61
2022/12/14 10:04:51;;;;;;;55.40;28.30;;;;;;;-6.00;77.22;99253.80;210256;1295;140798;-62
2022/12/14 10:10:27;;;;;;;46.30;28.50;;;;;;;-5.82;76.98;99245.86;210374;1295;140275;-62
2022/12/14 10:15:41;;;;;;;52.10;27.30;;;;;;;-5.58;76.84;99239.13;210346;1294;140840;-61
2022/12/14 10:21:13;;;;;;;48.90;25.90;;;;;;;-5.45;77.01;99236.27;210277;1294;140396;-63
2022/12/14 10:26:19;;;;;;;58.70;25.70;;;;;;;-5.21;76.60;99223.20;210139;1295;141292;-62
2022/12/14 10:31:59;;;;;;;72.70;32.50;;;;;;;-5.06;76.37;99215.13;210291;1287;140295;-63
2022/12/14 10:37:21;;;;;;;63.50;29.10;;;;;;;-4.94;76.00;99206.45;210312;1294;150751;-62
2022/12/14 10:42:35;;;;;;;49.60;30.50;;;;;;;-4.81;75.54;99199.47;210411;1285;141137;-61
2022/12/14 10:47:59;;;;;;;50.50;26.40;;;;;;;-4.81;75.52;99188.69;210378;1295;140111;-62
2022/12/14 10:53:12;;;;;;;47.90;28.10;;;;;;;-4.66;75.27;99179.99;210256;1294;142298;-64
2022/12/14 10:58:16;;;;;;;62.30;30.00;;;;;;;-4.61;75.05;99175.16;210351;1294;140731;-63
2022/12/14 11:03:21;;;;;;;48.60;27.70;;;;;;;-4.57;75.21;99166.03;208908;1286;140182;-63
2022/12/14 11:08:48;;;;;;;52.40;29.20;;;;;;;-4.48;74.78;99156.99;210295;1287;142102;-63
2022/12/14 11:14:08;;;;;;;57.70;29.80;;;;;;;-4.39;74.81;99144.15;210397;1282;142943;-62
2022/12/14 11:19:21;;;;;;;53.00;27.50;;;;;;;-4.35;74.43;99145.14;210394;1303;141309;-62
2022/12/14 11:24:27;;;;;;;58.00;31.50;;;;;;;-4.41;74.09;99138.73;210204;1295;140793;-62
2022/12/14 11:29:36;;;;;;;56.20;30.30;;;;;;;-4.39;73.85;99133.38;210198;1294;141862;-62
2022/12/14 11:34:41;;;;;;;60.60;28.70;;;;;;;-4.53;73.92;99130.40;210231;1294;141940;-64
2022/12/14 11:39:56;;;;;;;58.60;30.70;;;;;;;-4.59;73.64;99129.21;210251;1294;140170;-63
2022/12/14 11:45:24;;;;;;;60.00;33.40;;;;;;;-4.57;73.75;99117.62;209829;1293;140217;-62
2022/12/14 11:50:30;;;;;;;53.20;30.30;;;;;;;-4.62;73.66;99106.59;210371;1301;140097;-63
2022/12/14 11:55:38;;;;;;;43.30;29.00;;;;;;;-4.63;73.64;99102.69;209680;1297;140451;-63
2022/12/14 12:00:58;;;;;;;45.90;26.50;;;;;;;-4.70;73.58;99093.18;210341;1302;140620;-63
2022/12/14 12:06:06;;;;;;;56.10;31.40;;;;;;;-4.79;73.85;99089.31;210449;1295;139902;-63
2022/12/14 12:11:20;;;;;;;56.30;28.10;;;;;;;-4.90;73.68;99084.59;210434;1285;140124;-64
2022/12/14 12:16:26;;;;;;;63.30;31.40;;;;;;;-5.01;73.70;99082.95;210253;1295;140338;-62
2022/12/14 12:21:34;;;;;;;53.10;27.50;;;;;;;-5.07;73.73;99077.98;210382;1294;140616;-62
2022/12/14 12:27:12;;;;;;;45.10;22.20;;;;;;;-5.08;73.75;99063.51;210375;1295;141043;-63
2022/12/14 12:32:30;;;;;;;;;;;;;;;-4.96;73.56;99060.09;210346;1294;140648;-62
2022/12/14 12:37:43;;;;;;;50.20;26.60;;;;;;;-4.92;73.57;99048.95;210917;1295;125834;-62
2022/12/14 12:43:05;;;;;;;52.00;29.20;;;;;;;-4.93;73.35;99039.10;210388;1281;140613;-62
2022/12/14 12:48:39;;;;;;;53.30;30.40;;;;;;;-4.82;73.22;99030.92;210223;1295;140201;-62
2022/12/14 12:53:49;;;;;;;54.10;25.90;;;;;;;-4.78;73.12;99021.95;208649;1291;140659;-63
2022/12/14 12:58:55;;;;;;;51.60;27.20;;;;;;;-4.79;73.47;99015.38;210398;1295;225053;-63
2022/12/14 13:04:04;;;;;;;56.70;27.60;;;;;;;-4.79;73.13;99016.94;210558;1284;140456;-64
2022/12/14 13:09:20;;;;;;;49.60;28.80;;;;;;;-4.81;72.82;99011.73;210446;1288;140619;-63
2022/12/14 13:14:37;;;;;;;56.50;29.90;;;;;;;-4.92;72.91;99007.03;208557;1292;140103;-60
2022/12/14 13:19:48;;;;;;;59.00;24.70;;;;;;;-5.02;72.91;98999.33;210350;1295;140184;-61
2022/12/14 13:25:06;;;;;;;62.10;30.40;;;;;;;-5.12;72.97;98994.75;210355;1294;141592;-63
2022/12/14 13:30:19;;;;;;;48.50;26.50;;;;;;;-5.24;73.07;98983.51;210270;1295;140677;-62
2022/12/14 13:35:27;;;;;;;53.60;28.60;;;;;;;-5.41;72.99;98980.17;210106;1295;140062;-64
2022/12/14 13:40:42;;;;;;;68.20;31.10;;;;;;;-5.53;72.94;98972.42;210224;1292;495312;-61
2022/12/14 13:45:48;;;;;;;53.80;25.50;;;;;;;-5.66;72.87;98965.58;210472;1295;141815;-63
2022/12/14 13:51:18;;;;;;;52.00;24.60;;;;;;;-5.83;73.31;98962.50;210457;1295;141276;-64
2022/12/14 13:56:28;;;;;;;50.30;26.90;;;;;;;-5.96;73.28;98959.84;209977;1294;140197;-62
2022/12/14 14:01:45;;;;;;;53.50;26.70;;;;;;;-6.05;73.56;98956.05;209880;1294;140537;-63
2022/12/14 14:06:53;;;;;;;56.80;26.40;;;;;;;-6.17;73.43;98951.16;210389;1288;140098;-63
2022/12/14 14:12:06;;;;;;;49.90;25.40;;;;;;;-6.31;73.51;98946.46;210312;1285;141321;-63
2022/12/14 14:17:36;;;;;;;49.60;24.00;;;;;;;-6.37;73.80;98937.36;210312;1294;141284;-67
2022/12/14 14:23:13;;;;;;;41.80;22.30;;;;;;;-6.47;73.95;98936.77;210325;1294;235001;-65
2022/12/14 14:28:25;;;;;;;45.80;21.30;;;;;;;-6.53;73.86;98936.16;210280;1295;151379;-65
2022/12/14 14:33:41;;;;;;;40.70;22.30;;;;;;;-6.66;74.07;98927.52;210177;1298;140914;-64
2022/12/14 14:38:51;;;;;;;43.80;25.30;;;;;;;-6.80;74.41;98916.30;210234;1295;142100;-64
2022/12/14 14:44:02;;;;;;;46.00;22.70;;;;;;;-6.83;74.45;98907.55;210253;1295;140682;-62
2022/12/14 14:49:35;;;;;;;57.20;24.60;;;;;;;-6.82;74.66;98891.54;210392;1294;140552;-67
2022/12/14 14:54:39;;;;;;;49.20;24.00;;;;;;;-6.80;75.02;98883.92;210301;1285;139974;-64
2022/12/14 15:00:11;;;;;;;40.90;18.70;;;;;;;-6.75;75.27;98873.47;210389;1301;140461;-67
2022/12/14 15:05:25;;;;;;;42.90;19.70;;;;;;;-6.67;75.42;98872.47;210459;1301;140189;-61
2022/12/14 15:10:49;;;;;;;40.40;20.90;;;;;;;-6.65;75.73;98870.45;210240;1295;219108;-67
2022/12/14 15:15:55;;;;;;;44.10;20.30;;;;;;;-6.58;75.92;98860.73;210064;1302;141793;-67
2022/12/14 15:21:15;;;;;;;37.10;21.00;;;;;;;-6.45;76.05;98859.84;210292;1294;140382;-63
2022/12/14 15:26:24;;;;;;;45.00;18.90;;;;;;;-6.35;76.50;98857.29;210290;1293;140139;-67
2022/12/14 15:31:38;;;;;;;35.10;14.90;;;;;;;-6.28;76.44;98852.98;208201;1291;140421;-67
2022/12/14 15:36:43;;;;;;;33.30;19.00;;;;;;;-6.19;76.43;98849.55;210309;1285;139986;-65
2022/12/14 15:41:47;;;;;;;38.50;19.80;;;;;;;-6.10;76.62;98840.98;210261;1286;139937;-67
2022/12/14 15:46:55;;;;;;;47.00;21.80;;;;;;;-6.08;76.63;98837.17;209960;1293;141166;-64
2022/12/14 15:51:59;;;;;;;53.90;23.30;;;;;;;-6.08;77.04;98828.87;210275;1285;140017;-63
2022/12/14 15:57:04;;;;;;;35.70;20.10;;;;;;;-6.03;77.16;98826.48;210198;1295;140536;-63
2022/12/14 16:02:29;;;;;;;49.20;22.00;;;;;;;-5.90;77.26;98814.95;208342;1294;140604;-63
2022/12/14 16:07:38;;;;;;;50.00;19.60;;;;;;;-5.78;77.13;98806.59;210209;1298;141867;-65
2022/12/14 16:12:47;;;;;;;44.30;22.60;;;;;;;-5.75;77.62;98797.98;210190;1295;141455;-64
2022/12/14 16:17:54;;;;;;;43.20;18.00;;;;;;;-5.70;77.52;98781.65;210349;1288;139950;-69
2022/12/14 16:23:14;;;;;;;46.90;19.80;;;;;;;-5.58;77.49;98778.70;210373;1301;139644;-66
2022/12/14 16:28:38;;;;;;;43.00;21.10;;;;;;;-5.44;77.48;98774.59;210382;1295;141196;-64
2022/12/14 16:33:43;;;;;;;31.40;18.40;;;;;;;-5.32;77.60;98762.38;210558;1301;141123;-67
2022/12/14 16:39:02;;;;;;;56.80;24.10;;;;;;;-5.23;77.84;98759.02;210467;1292;140140;-65
2022/12/14 16:44:11;;;;;;;40.50;20.10;;;;;;;-5.17;77.86;98747.36;210342;1295;141203;-64
2022/12/14 16:49:29;;;;;;;51.30;23.10;;;;;;;-5.10;77.95;98747.23;210154;1295;140797;-65
2022/12/14 16:54:36;;;;;;;47.30;22.10;;;;;;;-5.03;77.55;98739.98;210340;1295;140360;-68
2022/12/14 16:59:44;;;;;;;41.40;19.50;;;;;;;-5.02;77.78;98737.60;210285;1300;140624;-64
2022/12/14 17:04:47;;;;;;;32.00;17.70;;;;;;;-5.02;77.73;98730.84;210156;1295;139883;-66
2022/12/14 17:09:53;;;;;;;44.90;26.20;;;;;;;-5.01;77.70;98730.39;210506;1295;139802;-65
2022/12/14 17:14:58;;;;;;;48.50;25.50;;;;;;;-5.00;77.93;98726.66;210551;1286;141358;-65
2022/12/14 17:20:04;;;;;;;52.20;24.70;;;;;;;-5.07;78.11;98710.14;210041;1302;140226;-67
2022/12/14 17:25:19;;;;;;;50.00;24.60;;;;;;;-5.05;78.19;98712.26;208849;1296;140654;-67
2022/12/14 17:30:25;;;;;;;42.50;21.80;;;;;;;-5.07;78.35;98712.94;210352;1298;140455;-66
2022/12/14 17:35:31;;;;;;;43.30;22.20;;;;;;;-5.03;78.33;98711.16;207932;1291;140437;-64
2022/12/14 17:40:38;;;;;;;48.40;23.00;;;;;;;-5.06;78.36;98713.72;210278;1294;141105;-64
2022/12/14 17:45:43;;;;;;;42.30;22.40;;;;;;;-5.10;78.33;98704.75;208550;1301;142646;-67
2022/12/14 17:50:49;;;;;;;46.60;24.50;;;;;;;-5.14;78.15;98705.84;208378;1292;140572;-68
2022/12/14 17:55:55;;;;;;;39.70;17.40;;;;;;;-5.17;78.46;98704.27;210051;1299;141316;-68
2022/12/14 18:01:01;;;;;;;39.30;20.40;;;;;;;-5.19;78.33;98694.44;210278;1300;139825;-68
2022/12/14 18:06:05;;;;;;;37.40;18.70;;;;;;;-5.22;78.57;98695.93;210372;1293;140088;-73
2022/12/14 18:11:13;;;;;;;40.90;17.60;;;;;;;-5.16;78.39;98697.65;210418;1290;140089;-65
2022/12/14 18:16:17;;;;;;;;;;;;;;;-5.17;78.60;98686.90;210380;1295;141339;-68
2022/12/14 18:21:26;;;;;;;45.20;23.40;;;;;;;-5.13;78.54;98681.91;207799;1289;127152;-66
2022/12/14 18:26:32;;;;;;;41.50;23.20;;;;;;;-5.15;78.45;98686.70;210245;1291;140210;-68
2022/12/14 18:31:39;;;;;;;43.80;21.10;;;;;;;-5.16;78.58;98689.14;210439;1295;140582;-66
2022/12/14 18:36:44;;;;;;;47.50;23.10;;;;;;;-5.17;78.19;98682.13;210440;1298;140670;-66
2022/12/14 18:41:48;;;;;;;28.20;17.30;;;;;;;-5.27;78.41;98675.41;210555;1298;141547;-66
2022/12/14 18:46:54;;;;;;;45.50;22.20;;;;;;;-5.28;78.29;98679.11;210521;1298;141404;-66
2022/12/14 18:52:11;;;;;;;47.20;25.90;;;;;;;-5.32;78.40;98681.98;210650;1298;141366;-66
2022/12/14 18:57:15;;;;;;;51.90;24.90;;;;;;;-5.30;78.50;98674.81;210412;1296;140089;-66
2022/12/14 19:02:20;;;;;;;49.90;25.80;;;;;;;-5.27;78.59;98667.19;210055;1289;140184;-65
2022/12/14 19:07:25;;;;;;;50.20;25.50;;;;;;;-5.34;78.42;98665.02;210563;1295;140218;-65
2022/12/14 19:12:28;;;;;;;49.90;26.60;;;;;;;-5.37;78.25;98657.42;209559;1298;140485;-66
2022/12/14 19:17:32;;;;;;;66.70;27.10;;;;;;;-5.45;78.62;98650.26;210550;1291;141371;-66
2022/12/14 19:22:37;;;;;;;58.50;29.10;;;;;;;-5.47;78.79;98646.30;210592;1298;141845;-65
2022/12/14 19:27:42;;;;;;;55.50;26.90;;;;;;;-5.47;78.94;98633.94;207906;1298;139890;-65
2022/12/14 19:33:09;;;;;;;55.30;26.40;;;;;;;-5.42;79.05;98627.90;208216;1291;140702;-65
2022/12/14 19:38:16;;;;;;;57.30;30.00;;;;;;;-5.31;79.23;98618.10;210543;1298;235453;-66
2022/12/14 19:43:20;;;;;;;68.90;33.90;;;;;;;-5.25;79.49;98623.27;210223;1294;243442;-65
2022/12/14 19:48:28;;;;;;;67.30;33.10;;;;;;;-5.20;79.67;98627.12;210556;1287;143023;-65
2022/12/14 19:53:33;;;;;;;58.40;30.50;;;;;;;-5.10;79.89;98628.88;210395;1290;142850;-66
2022/12/14 19:58:38;;;;;;;60.60;27.10;;;;;;;-4.99;79.72;98625.86;207743;1293;142535;-65
2022/12/14 20:03:45;;;;;;;66.70;28.90;;;;;;;-4.93;79.66;98619.11;209137;1292;140799;-64
2022/12/14 20:08:50;;;;;;;61.80;29.30;;;;;;;-4.96;79.70;98622.71;210525;1291;140862;-64
2022/12/14 20:13:57;;;;;;;67.70;29.80;;;;;;;-4.97;79.74;98607.96;210360;1298;142184;-64
2022/12/14 20:19:06;;;;;;;145.20;49.20;;;;;;;-4.93;79.64;98595.52;210574;1298;141001;-64
2022/12/14 20:24:11;;;;;;;138.90;52.60;;;;;;;-4.89;79.80;98595.40;210385;1292;139832;-64
2022/12/14 20:29:15;;;;;;;86.10;39.10;;;;;;;-4.81;80.38;98593.70;210363;1294;140752;-65
2022/12/14 20:34:20;;;;;;;82.20;34.70;;;;;;;-4.71;80.58;98587.16;209896;1288;140513;-64
2022/12/14 20:39:24;;;;;;;61.40;27.90;;;;;;;-4.64;80.09;98589.61;210470;1288;140272;-64
2022/12/14 20:44:30;;;;;;;76.60;34.40;;;;;;;-4.50;80.19;98587.40;210287;1295;140587;-64
2022/12/14 20:49:37;;;;;;;71.00;37.50;;;;;;;-4.44;80.16;98586.17;210394;1298;142738;-65
2022/12/14 20:54:42;;;;;;;61.50;30.80;;;;;;;-4.37;80.27;98580.13;210382;1295;140787;-65
2022/12/14 20:59:47;;;;;;;65.30;33.40;;;;;;;-4.31;80.32;98575.42;210411;1298;143696;-65
2022/12/14 21:04:52;;;;;;;69.40;36.50;;;;;;;-4.29;80.38;98575.28;210472;1294;142112;-65
2022/12/14 21:09:57;;;;;;;73.80;37.10;;;;;;;-4.28;80.26;98564.58;210482;1293;139675;-65
2022/12/14 21:15:02;;;;;;;85.70;36.20;;;;;;;-4.24;80.11;98557.15;210430;1292;140778;-65
2022/12/14 21:20:06;;;;;;;74.10;39.40;;;;;;;-4.18;80.08;98559.90;210415;1291;141266;-65
2022/12/14 21:25:11;;;;;;;97.80;44.40;;;;;;;-4.16;80.16;98557.42;208752;1292;140813;-63
2022/12/14 21:30:16;;;;;;;86.20;43.40;;;;;;;-4.14;80.19;98557.09;210455;1288;140566;-65
2022/12/14 21:35:21;;;;;;;82.60;43.30;;;;;;;-4.18;80.10;98554.54;208302;1293;141565;-63
2022/12/14 21:45:51;;;;;;;107.40;55.90;;;;;;;-4.22;80.47;98540.08;209751;1300;235019;-63
2022/12/14 21:50:57;;;;;;;68.50;34.20;;;;;;;-4.19;80.47;98548.98;210498;1295;139965;-64
2022/12/14 22:01:32;;;;;;;67.60;35.00;;;;;;;-4.03;80.40;98541.06;209287;1295;141610;-63
2022/12/14 22:06:38;;;;;;;78.50;37.70;;;;;;;-3.92;80.58;98533.21;210429;1294;139793;-64
2022/12/14 22:11:45;;;;;;;73.70;34.80;;;;;;;-3.90;80.30;98534.21;207898;1292;139319;-64
2022/12/14 22:16:51;;;;;;;74.30;39.90;;;;;;;-3.90;80.47;98534.25;210466;1294;139843;-64
2022/12/14 22:21:58;;;;;;;71.40;33.90;;;;;;;-3.95;80.27;98531.70;210522;1295;139661;-65
2022/12/14 22:27:03;;;;;;;70.00;34.70;;;;;;;-4.01;79.94;98529.67;210614;1294;140033;-64
2022/12/14 22:32:10;;;;;;;71.40;33.00;;;;;;;-3.97;79.99;98528.75;210013;1295;140268;-64
2022/12/14 22:37:17;;;;;;;79.30;38.80;;;;;;;-3.96;79.83;98522.44;210446;1300;140397;-64
2022/12/14 22:42:22;;;;;;;73.70;34.90;;;;;;;-3.97;80.03;98522.35;210607;1292;139885;-64
2022/12/14 22:47:27;;;;;;;63.20;32.40;;;;;;;-4.00;79.90;98524.44;210555;1282;140169;-64
2022/12/14 22:52:32;;;;;;;66.30;33.30;;;;;;;-4.01;79.92;98515.07;210452;1290;140554;-64
2022/12/14 22:57:43;;;;;;;68.00;37.30;;;;;;;-4.02;79.85;98513.80;210613;1295;139373;-64
2022/12/14 23:02:48;;;;;;;73.20;33.70;;;;;;;-4.07;79.77;98513.05;210511;1293;139614;-64
2022/12/14 23:07:53;;;;;;;68.00;34.10;;;;;;;-4.08;79.62;98511.69;210108;1290;139981;-64
